Time;durP1;ratioP1;P1;durP2;ratioP2;P2;SDS_P1;SDS_P2;PMS_P1;PMS_P2;Temp;Humidity;BMP_temperature;BMP_pressure;BME280_temperature;BME280_humidity;BME280_pressure;Samples;Min_cycle;Max_cycle;Signal;HPM_P1;HPM_P2
2022/05/26 00:02:13;;;;;;;6.42;3.35;;;;;;;16.39;50.80;99648.14;1734372;81;21885;-92
2022/05/26 00:04:39;;;;;;;7.92;3.20;;;;;;;16.39;51.64;99644.63;1739414;82;21077;-92
2022/05/26 00:07:07;;;;;;;5.53;2.80;;;;;;;16.36;51.37;99635.91;1739316;81;21129;-91
2022/05/26 00:09:36;;;;;;;5.70;3.10;;;;;;;16.37;51.92;99638.09;1734450;81;21070;-89
2022/05/26 00:12:03;;;;;;;7.92;3.37;;;;;;;16.35;52.47;99626.71;1720049;81;21068;-91
2022/05/26 00:14:31;;;;;;;6.80;3.08;;;;;;;16.28;51.47;99618.30;1734857;82;21617;-91
2022/05/26 00:16:58;;;;;;;7.37;3.20;;;;;;;16.34;51.29;99629.01;1734677;81;21617;-91
2022/05/26 00:19:25;;;;;;;4.50;3.15;;;;;;;16.39;51.34;99619.39;1739319;81;21061;-91
2022/05/26 00:21:51;;;;;;;5.42;3.30;;;;;;;16.40;51.58;99623.73;1726473;81;21077;-91
2022/05/26 00:24:18;;;;;;;7.92;3.17;;;;;;;16.40;51.53;99624.58;1719110;81;21079;-91
2022/05/26 00:26:46;;;;;;;9.25;3.02;;;;;;;16.39;52.05;99616.25;1777247;78;21298;-92
2022/05/26 00:29:12;;;;;;;8.23;3.22;;;;;;;16.37;52.54;99614.17;1776426;78;21064;-92
2022/05/26 00:31:38;;;;;;;6.20;3.20;;;;;;;16.32;52.99;99607.84;1776210;78;21116;-90
2022/05/26 00:35:15;;;;;;;9.30;2.95;;;;;;;16.33;53.99;99592.75;1795946;79;22613;-71
2022/05/26 00:37:43;;;;;;;10.80;4.00;;;;;;;16.27;53.86;99586.55;1756373;81;21049;-71
2022/05/26 00:40:11;;;;;;;10.72;3.55;;;;;;;16.23;54.26;99585.05;1756556;81;21201;-72
2022/05/26 00:42:40;;;;;;;4.22;3.10;;;;;;;16.20;54.32;99587.94;1756666;81;20962;-70
2022/05/26 00:45:08;;;;;;;6.78;3.37;;;;;;;16.17;54.71;99586.80;1756428;81;21089;-70
2022/05/26 00:47:41;;;;;;;7.62;3.45;;;;;;;16.15;55.25;99583.78;1756447;81;21588;-71
2022/05/26 00:50:27;;;;;;;7.80;3.40;;;;;;;16.14;55.11;99587.38;1756333;81;21061;-71
2022/05/26 00:52:58;;;;;;;6.97;3.25;;;;;;;16.11;55.64;99582.28;1756551;81;21218;-70
2022/05/26 00:55:32;;;;;;;6.35;3.58;;;;;;;16.08;55.89;99582.50;1756448;81;21037;-71
2022/05/26 00:58:25;;;;;;;7.20;3.05;;;;;;;16.04;56.29;99577.02;1756618;81;21053;-70
2022/05/26 01:00:51;;;;;;;6.58;3.55;;;;;;;16.01;57.16;99577.24;1756529;81;21578;-70
2022/05/26 01:03:41;;;;;;;6.83;3.35;;;;;;;15.98;57.55;99573.45;1756950;81;21537;-70
2022/05/26 01:06:14;;;;;;;5.42;3.47;;;;;;;15.97;57.58;99563.80;1752136;81;21551;-70
2022/05/26 01:09:05;;;;;;;11.35;3.87;;;;;;;15.96;58.10;99559.42;1756464;81;21565;-70
2022/05/26 01:11:36;;;;;;;10.13;3.60;;;;;;;15.95;58.22;99560.39;1756544;81;21041;-69
2022/05/26 01:14:21;;;;;;;7.87;3.77;;;;;;;15.94;57.92;99558.67;1753904;81;21069;-70
2022/05/26 01:17:14;;;;;;;8.75;3.92;;;;;;;15.91;59.13;99554.91;1746247;82;21144;-70
2022/05/26 01:20:05;;;;;;;8.78;3.92;;;;;;;15.87;59.57;99544.12;1720492;83;21918;-70
2022/05/26 01:23:15;;;;;;;6.28;3.83;;;;;;;15.79;59.96;99536.69;1720374;83;21627;-69
2022/05/26 01:26:08;;;;;;;7.50;3.52;;;;;;;15.80;59.58;99545.01;1720667;83;21115;-70
2022/05/26 01:28:58;;;;;;;7.33;3.55;;;;;;;15.77;60.01;99545.71;1720644;83;21124;-70
2022/05/26 01:31:55;;;;;;;10.40;3.37;;;;;;;15.76;60.16;99538.69;1720642;83;21093;-70
2022/05/26 01:34:48;;;;;;;5.28;3.25;;;;;;;15.73;60.60;99524.70;1713831;83;21272;-70
2022/05/26 01:37:32;;;;;;;6.40;3.52;;;;;;;15.73;59.65;99526.02;1707648;84;21053;-69
2022/05/26 01:40:32;;;;;;;7.97;3.40;;;;;;;15.77;58.86;99524.47;1707760;84;21046;-71
2022/05/26 01:43:31;;;;;;;5.92;3.25;;;;;;;15.78;59.82;99520.85;1707649;84;21097;-70
2022/05/26 01:46:06;;;;;;;8.95;3.60;;;;;;;15.80;59.64;99517.62;1707117;83;21074;-70
2022/05/26 01:49:04;;;;;;;7.60;3.42;;;;;;;15.85;59.08;99523.45;1707200;84;21060;-70
2022/05/26 01:51:41;;;;;;;9.53;4.35;;;;;;;15.85;58.99;99511.51;1703094;83;21082;-70
2022/05/26 01:54:26;;;;;;;10.53;3.30;;;;;;;15.85;58.92;99511.51;1707094;84;21120;-70
2022/05/26 01:57:06;;;;;;;7.70;3.22;;;;;;;15.87;59.27;99512.26;1697062;84;21088;-70
2022/05/26 01:59:49;;;;;;;9.63;3.25;;;;;;;15.82;59.81;99499.30;1707269;83;21046;-71
2022/05/26 02:02:26;;;;;;;5.60;3.20;;;;;;;15.86;59.50;99507.43;1706787;83;21350;-70
2022/05/26 02:05:03;;;;;;;6.80;3.20;;;;;;;15.88;58.94;99504.68;1686766;84;21132;-70
2022/05/26 02:07:54;;;;;;;5.30;3.10;;;;;;;15.89;58.65;99500.57;1706779;83;21062;-70
2022/05/26 02:10:26;;;;;;;7.15;3.35;;;;;;;15.91;58.70;99497.82;1696072;84;21041;-70
2022/05/26 02:13:03;;;;;;;5.55;2.83;;;;;;;15.92;58.90;99494.23;1707351;84;21065;-69
2022/05/26 02:15:36;;;;;;;5.37;2.80;;;;;;;15.94;59.61;99494.48;1684341;85;21165;-70
2022/05/26 02:18:21;;;;;;;8.10;3.27;;;;;;;15.97;59.25;99493.42;1684347;83;21038;-70
2022/05/26 02:20:59;;;;;;;6.45;3.12;;;;;;;15.99;59.13;99491.52;1684320;85;21030;-70
2022/05/26 02:23:44;;;;;;;8.23;3.30;;;;;;;16.05;58.52;99489.73;1684228;84;21094;-69
2022/05/26 02:26:13;;;;;;;8.13;2.47;;;;;;;16.11;57.49;99490.64;1684397;85;21059;-70
2022/05/26 02:31:26;;;;;;;5.78;2.62;;;;;;;16.32;56.46;99483.45;1684496;85;21110;-69
2022/05/26 02:33:57;;;;;;;6.33;2.70;;;;;;;16.39;56.39;99484.70;1674614;84;22176;-70
2022/05/26 02:36:24;;;;;;;4.60;2.70;;;;;;;16.44;56.23;99477.25;1653167;85;21554;-71
2022/05/26 02:38:50;;;;;;;4.37;2.47;;;;;;;16.48;55.78;99478.73;1684649;84;21530;-70
2022/05/26 02:41:17;;;;;;;7.60;2.60;;;;;;;16.51;55.70;99477.66;1684641;84;21730;-71
2022/05/26 02:43:43;;;;;;;3.62;2.50;;;;;;;16.54;55.53;99474.31;1684440;85;21030;-70
2022/05/26 02:46:42;;;;;;;4.75;2.70;;;;;;;16.57;55.13;99471.42;1684600;84;21104;-69
2022/05/26 02:49:42;;;;;;;8.18;2.87;;;;;;;16.58;55.01;99462.96;1684406;85;21888;-71
2022/05/26 02:52:26;;;;;;;12.13;2.47;;;;;;;16.62;54.58;99466.27;1684377;85;21053;-70
2022/05/26 02:55:33;;;;;;;8.18;2.50;;;;;;;16.63;54.79;99470.60;1684301;85;21189;-71
2022/05/26 02:58:37;;;;;;;7.50;2.83;;;;;;;16.64;54.97;99472.32;1684114;84;21090;-71
2022/05/26 03:01:22;;;;;;;6.85;2.37;;;;;;;16.62;54.40;99471.09;1684315;84;21097;-71
2022/05/26 03:03:54;;;;;;;12.98;2.67;;;;;;;16.63;53.79;99478.58;1684539;84;21061;-70
2022/05/26 03:06:46;;;;;;;9.23;2.50;;;;;;;16.61;54.46;99475.18;1684319;84;21110;-70
2022/05/26 03:09:13;;;;;;;9.33;2.65;;;;;;;16.61;54.37;99473.39;1684707;84;21222;-70
2022/05/26 03:11:54;;;;;;;9.73;2.40;;;;;;;16.59;54.18;99468.66;1684218;84;21121;-70
2022/05/26 03:14:21;;;;;;;6.50;2.40;;;;;;;16.62;54.38;99472.91;1696799;84;22251;-70
2022/05/26 03:16:49;;;;;;;8.10;2.15;;;;;;;16.63;54.17;99463.47;1707112;82;21073;-69
2022/05/26 03:19:18;;;;;;;5.83;2.42;;;;;;;16.65;55.33;99464.70;1706951;83;21097;-73
2022/05/26 03:21:45;;;;;;;8.28;2.52;;;;;;;16.61;57.06;99472.52;1707187;83;21395;-71
2022/05/26 03:24:12;;;;;;;10.68;2.60;;;;;;;16.54;58.48;99469.00;1706965;84;21057;-71
2022/05/26 03:26:39;;;;;;;10.15;2.90;;;;;;;16.45;61.34;99467.45;1706920;83;21060;-71
2022/05/26 03:29:06;;;;;;;8.38;2.52;;;;;;;16.30;62.77;99464.11;1706965;84;22517;-70
2022/05/26 03:31:33;;;;;;;5.37;3.02;;;;;;;16.17;63.40;99457.96;1707092;84;21120;-71
2022/05/26 03:42:16;;;;;;;5.12;2.70;;;;;;;15.76;68.61;99441.79;1720326;83;21635;-70
2022/05/26 03:44:44;;;;;;;5.05;3.20;;;;;;;15.66;67.25;99446.38;1720228;82;21029;-70
2022/05/26 03:47:11;;;;;;;7.28;2.52;;;;;;;15.61;66.99;99445.01;1720095;83;21600;-70
2022/05/26 03:49:38;;;;;;;6.65;3.30;;;;;;;15.55;67.22;99444.94;1720091;83;21037;-70
2022/05/26 03:52:05;;;;;;;10.45;3.22;;;;;;;15.49;69.74;99457.31;1720501;83;21632;-69
2022/05/26 03:54:33;;;;;;;12.47;3.58;;;;;;;15.37;71.98;99463.43;1720307;83;21045;-71
2022/05/26 03:57:00;;;;;;;11.22;3.60;;;;;;;15.19;75.02;99463.73;1720451;83;21077;-69
2022/05/26 03:59:26;;;;;;;9.15;3.60;;;;;;;14.98;76.33;99459.86;1720555;83;21313;-70
2022/05/26 04:01:54;;;;;;;6.55;3.02;;;;;;;14.81;80.11;99472.39;1720377;82;21064;-70
2022/05/26 04:04:21;;;;;;;6.20;3.25;;;;;;;14.66;83.43;99462.80;1720373;82;21132;-70
2022/05/26 04:06:48;;;;;;;7.87;3.50;;;;;;;14.43;87.29;99466.89;1720388;83;21088;-70
2022/05/26 04:09:15;;;;;;;7.78;4.20;;;;;;;14.28;89.85;99466.05;1720658;83;21069;-69
2022/05/26 04:11:43;;;;;;;14.45;4.72;;;;;;;14.17;91.34;99460.56;1720387;82;21117;-70
2022/05/26 04:14:10;;;;;;;9.68;4.28;;;;;;;14.01;93.98;99457.58;1722755;83;22065;-70
2022/05/26 04:16:36;;;;;;;6.87;4.00;;;;;;;13.91;95.99;99459.06;1725660;83;21613;-70
2022/05/26 04:19:03;;;;;;;8.73;4.08;;;;;;;13.81;97.72;99465.88;1725912;83;21047;-71
2022/05/26 04:21:30;;;;;;;17.95;5.03;;;;;;;13.67;100.00;99469.84;1725786;82;21529;-71
2022/05/26 04:23:58;;;;;;;9.03;4.80;;;;;;;13.54;100.00;99478.50;1725966;82;21931;-72
2022/05/26 04:26:24;;;;;;;8.23;4.95;;;;;;;13.44;100.00;99472.06;1725814;83;21033;-71
2022/05/26 04:28:51;;;;;;;11.28;5.15;;;;;;;13.36;100.00;99466.36;1725749;83;21077;-71
2022/05/26 04:31:18;;;;;;;8.75;4.97;;;;;;;13.34;100.00;99458.98;1726128;83;21084;-71
2022/05/26 04:33:45;;;;;;;13.22;5.17;;;;;;;13.32;100.00;99472.77;1725746;83;21029;-70
2022/05/26 04:36:12;;;;;;;7.70;5.08;;;;;;;13.25;100.00;99479.33;1714663;82;21641;-70
2022/05/26 04:38:38;;;;;;;9.03;4.53;;;;;;;13.17;100.00;99480.63;1712801;82;21626;-71
2022/05/26 04:41:06;;;;;;;8.98;4.92;;;;;;;13.13;100.00;99471.16;1712824;83;21046;-71
2022/05/26 04:43:35;;;;;;;7.53;3.85;;;;;;;13.10;100.00;99465.22;1712979;82;21042;-71
2022/05/26 04:46:03;;;;;;;7.85;4.53;;;;;;;13.06;100.00;99477.75;1713024;82;21050;-71
2022/05/26 04:48:29;;;;;;;6.92;4.67;;;;;;;12.99;100.00;99473.76;1712939;83;21122;-70
2022/05/26 04:50:57;;;;;;;10.00;4.85;;;;;;;12.94;100.00;99483.75;1712769;82;21542;-71
2022/05/26 04:53:24;;;;;;;13.28;6.25;;;;;;;12.90;100.00;99492.78;1713069;83;21059;-70
2022/05/26 04:55:54;;;;;;;13.45;5.42;;;;;;;12.82;100.00;99490.59;1712784;83;21479;-72
2022/05/26 04:58:21;;;;;;;8.85;5.62;;;;;;;12.73;100.00;99481.38;1713140;83;21554;-70
2022/05/26 05:00:47;;;;;;;14.45;6.67;;;;;;;12.69;100.00;99479.00;1713078;83;21809;-71
2022/05/26 05:03:14;;;;;;;10.60;5.90;;;;;;;12.64;100.00;99476.61;1712883;82;21518;-71
2022/05/26 05:05:40;;;;;;;10.45;6.17;;;;;;;12.61;100.00;99474.16;1713072;83;21845;-71
2022/05/26 05:08:07;;;;;;;16.17;6.90;;;;;;;12.59;100.00;99473.38;1712958;83;21041;-69
2022/05/26 05:10:34;;;;;;;11.18;6.45;;;;;;;12.57;100.00;99468.17;1713448;82;21019;-71
2022/05/26 05:13:00;;;;;;;12.23;6.05;;;;;;;12.57;100.00;99466.86;1712894;83;21227;-70
2022/05/26 05:15:35;;;;;;;13.90;6.28;;;;;;;12.56;100.00;99470.45;1707414;83;21065;-70
2022/05/26 05:18:01;;;;;;;10.60;6.47;;;;;;;12.56;100.00;99474.41;1706986;84;22183;-71
2022/05/26 05:20:28;;;;;;;13.95;6.83;;;;;;;12.54;100.00;99471.00;1707090;84;21090;-71
2022/05/26 05:23:00;;;;;;;10.75;6.35;;;;;;;12.53;100.00;99473.72;1707174;84;21540;-72
2022/05/26 05:25:32;;;;;;;14.07;6.72;;;;;;;12.53;100.00;99479.00;1706902;84;21947;-70
2022/05/26 05:28:13;;;;;;;15.18;6.80;;;;;;;12.49;100.00;99478.33;1706293;83;21137;-70
2022/05/26 05:30:56;;;;;;;12.20;7.13;;;;;;;12.46;100.00;99489.05;1707149;83;21077;-70
2022/05/26 05:33:27;;;;;;;12.05;6.22;;;;;;;12.45;100.00;99490.47;1707265;84;21741;-70
2022/05/26 05:35:59;;;;;;;11.20;6.75;;;;;;;12.38;100.00;99488.63;1714640;83;21089;-70
2022/05/26 05:38:26;;;;;;;13.30;7.15;;;;;;;12.33;100.00;99492.84;1720366;83;21201;-70
2022/05/26 05:40:52;;;;;;;10.55;7.47;;;;;;;12.33;100.00;99497.25;1720545;83;21415;-71
2022/05/26 05:43:19;;;;;;;12.95;7.47;;;;;;;12.31;100.00;99492.07;1720427;83;21136;-70
2022/05/26 05:45:46;;;;;;;12.37;7.80;;;;;;;12.33;100.00;99496.80;1720485;83;21073;-71
2022/05/26 05:48:13;;;;;;;13.50;7.35;;;;;;;12.33;100.00;99491.97;1720378;83;22192;-70
2022/05/26 05:50:40;;;;;;;10.80;7.10;;;;;;;12.33;100.00;99494.16;1720307;83;21748;-70
2022/05/26 05:53:07;;;;;;;12.18;7.40;;;;;;;12.35;100.00;99492.30;1720333;83;21024;-70
2022/05/26 05:55:33;;;;;;;12.60;7.30;;;;;;;12.39;100.00;99501.73;1720241;82;21640;-70
2022/05/26 05:57:59;;;;;;;11.65;7.22;;;;;;;12.42;100.00;99501.18;1720689;82;21092;-71
2022/05/26 06:00:27;;;;;;;12.58;7.28;;;;;;;12.42;100.00;99498.54;1720547;82;21068;-71
2022/05/26 06:02:54;;;;;;;11.43;7.78;;;;;;;12.44;100.00;99505.91;1720570;83;21185;-71
2022/05/26 06:05:20;;;;;;;13.98;7.03;;;;;;;12.45;100.00;99505.00;1720604;83;21064;-71
2022/05/26 06:07:47;;;;;;;10.85;7.37;;;;;;;12.47;100.00;99499.13;1720750;83;21213;-71
2022/05/26 06:10:14;;;;;;;13.68;7.92;;;;;;;12.49;100.00;99505.19;1720474;83;21136;-71
2022/05/26 06:12:42;;;;;;;11.28;7.42;;;;;;;12.51;100.00;99505.96;1720489;82;21097;-71
2022/05/26 06:15:10;;;;;;;11.25;7.45;;;;;;;12.58;100.00;99508.64;1725460;83;21586;-71
2022/05/26 06:17:37;;;;;;;10.63;7.00;;;;;;;12.61;100.00;99503.21;1725670;82;21053;-71
2022/05/26 06:20:05;;;;;;;10.88;8.53;;;;;;;12.65;100.00;99511.33;1725733;82;21001;-71
2022/05/26 06:22:32;;;;;;;11.08;7.37;;;;;;;12.69;100.00;99507.58;1725802;83;21046;-70
2022/05/26 06:24:59;;;;;;;12.65;7.08;;;;;;;12.73;100.00;99514.41;1726143;83;21053;-71
2022/05/26 06:30:14;;;;;;;11.83;6.67;;;;;;;12.82;100.00;99526.73;1726042;83;21092;-71
2022/05/26 06:38:21;;;;;;;9.53;6.00;;;;;;;12.95;100.00;99531.69;1725979;83;21037;-71
2022/05/26 06:40:48;;;;;;;11.22;6.67;;;;;;;13.00;100.00;99531.83;1725796;82;21217;-70
2022/05/26 06:43:15;;;;;;;10.03;6.42;;;;;;;13.07;100.00;99531.02;1725879;83;21095;-70
2022/05/26 06:45:44;;;;;;;9.48;5.62;;;;;;;13.13;100.00;99531.13;1725913;82;21092;-71
2022/05/26 06:48:13;;;;;;;9.90;5.33;;;;;;;13.19;100.00;99536.92;1725745;83;21045;-70
2022/05/26 06:50:40;;;;;;;8.25;4.95;;;;;;;13.29;100.00;99536.42;1726063;83;21080;-72
2022/05/26 06:53:07;;;;;;;7.62;4.55;;;;;;;13.52;100.00;99528.47;1726119;82;21403;-71
2022/05/26 06:55:33;;;;;;;7.08;4.00;;;;;;;13.61;100.00;99511.58;1725907;83;21053;-72
2022/05/26 06:58:00;;;;;;;6.75;3.60;;;;;;;13.69;100.00;99519.53;1726231;82;21029;-71
2022/05/26 07:00:26;;;;;;;7.58;3.77;;;;;;;13.83;100.00;99523.55;1726064;83;21084;-71
2022/05/26 07:02:53;;;;;;;8.58;3.70;;;;;;;13.91;100.00;99519.95;1725948;82;21108;-71
2022/05/26 07:05:20;;;;;;;4.67;3.17;;;;;;;13.97;100.00;99518.73;1726383;83;21214;-71
2022/05/26 07:07:48;;;;;;;5.95;2.70;;;;;;;14.06;100.00;99523.00;1725782;83;21053;-71
2022/05/26 07:10:14;;;;;;;4.15;2.72;;;;;;;14.09;100.00;99527.25;1726134;83;21073;-70
2022/05/26 07:12:41;;;;;;;6.55;3.20;;;;;;;14.17;100.00;99537.36;1725728;83;21104;-70
2022/05/26 07:15:08;;;;;;;4.58;3.05;;;;;;;14.26;100.00;99532.82;1696952;82;21137;-71
2022/05/26 07:17:37;;;;;;;5.08;3.20;;;;;;;14.19;100.00;99540.77;1691407;84;21882;-71
2022/05/26 07:20:06;;;;;;;5.12;3.37;;;;;;;14.15;100.00;99549.39;1691428;84;21048;-70
2022/05/26 07:22:34;;;;;;;4.00;2.90;;;;;;;14.06;100.00;99560.06;1691474;84;21066;-71
2022/05/26 07:25:00;;;;;;;3.60;2.70;;;;;;;13.97;100.00;99563.27;1691415;84;21108;-71
2022/05/26 07:27:27;;;;;;;4.92;2.70;;;;;;;13.91;100.00;99559.66;1691682;84;21060;-69
2022/05/26 07:29:56;;;;;;;3.08;2.30;;;;;;;13.83;100.00;99561.44;1691607;84;21129;-71
2022/05/26 07:32:23;;;;;;;4.17;2.50;;;;;;;13.76;100.00;99569.84;1691788;84;21553;-70
2022/05/26 07:34:51;;;;;;;3.85;2.67;;;;;;;13.69;100.00;99574.64;1691522;84;21065;-72
2022/05/26 07:42:50;;;;;;;4.95;3.05;;;;;;;13.60;100.00;99586.61;1680842;83;21125;-71
2022/05/26 07:45:17;;;;;;;4.67;3.10;;;;;;;13.56;100.00;99580.27;1684725;85;21057;-70
2022/05/26 07:47:45;;;;;;;5.35;2.87;;;;;;;13.59;100.00;99593.30;1674590;85;21529;-70
2022/05/26 07:50:19;;;;;;;6.95;2.95;;;;;;;13.60;100.00;99591.91;1684589;85;21591;-69
2022/05/26 07:52:41;;;;;;;3.90;2.83;;;;;;;13.62;100.00;99591.34;1684521;84;22093;-69
2022/05/26 07:55:08;;;;;;;7.40;3.25;;;;;;;13.53;100.00;99587.91;1684526;85;21160;-70
2022/05/26 07:57:35;;;;;;;4.67;3.47;;;;;;;13.69;100.00;99591.84;1684361;85;21045;-70
2022/05/26 08:00:03;;;;;;;3.77;2.70;;;;;;;13.76;100.00;99593.66;1684740;84;21065;-69
2022/05/26 08:02:34;;;;;;;5.50;3.15;;;;;;;13.78;100.00;99591.75;1684380;84;21067;-71
2022/05/26 08:05:01;;;;;;;6.05;3.12;;;;;;;13.82;100.00;99592.80;1684861;85;21092;-71
2022/05/26 08:07:28;;;;;;;4.50;3.10;;;;;;;13.90;100.00;99592.85;1684433;85;21776;-70
2022/05/26 08:09:56;;;;;;;4.35;2.52;;;;;;;14.01;100.00;99591.27;1684255;84;21609;-71
2022/05/26 08:12:23;;;;;;;4.00;2.65;;;;;;;14.23;100.00;99595.26;1684418;85;21084;-71
2022/05/26 08:14:49;;;;;;;2.95;2.65;;;;;;;14.54;100.00;99596.02;1701043;84;21107;-72
2022/05/26 08:17:22;;;;;;;5.78;2.90;;;;;;;14.91;100.00;99598.59;1707154;82;21034;-71
2022/05/26 08:19:50;;;;;;;3.80;2.50;;;;;;;15.18;100.00;99595.95;1707126;84;21121;-71
2022/05/26 08:22:18;;;;;;;3.25;2.50;;;;;;;15.30;100.00;99603.63;1707619;84;21014;-71
2022/05/26 08:24:52;;;;;;;4.62;2.10;;;;;;;15.19;100.00;99616.23;1707345;84;21116;-71
2022/05/26 08:27:19;;;;;;;3.12;2.20;;;;;;;15.10;100.00;99622.13;1707506;84;21065;-71
2022/05/26 08:29:46;;;;;;;5.40;2.27;;;;;;;14.97;100.00;99619.87;1707455;84;21606;-71
2022/05/26 08:32:15;;;;;;;3.33;1.75;;;;;;;14.96;100.00;99625.66;1707463;83;22138;-73
2022/05/26 08:34:41;;;;;;;2.55;1.80;;;;;;;15.18;100.00;99627.78;1686910;84;21217;-71
2022/05/26 08:37:15;;;;;;;3.60;1.95;;;;;;;15.59;100.00;99620.27;1716648;83;21498;-71
2022/05/26 08:39:42;;;;;;;2.27;1.77;;;;;;;16.15;100.00;99611.67;1720291;83;21044;-69
2022/05/26 08:42:28;;;;;;;2.15;1.70;;;;;;;16.56;100.00;99627.02;1720802;83;21021;-70
2022/05/26 08:45:06;;;;;;;1.70;1.60;;;;;;;16.68;97.60;99638.60;1720485;83;21224;-71
2022/05/26 08:47:42;;;;;;;4.03;1.40;;;;;;;16.65;93.61;99634.84;1720642;83;21076;-70
2022/05/26 08:50:17;;;;;;;2.70;1.10;;;;;;;16.78;92.49;99656.47;1720518;83;21128;-70
2022/05/26 08:52:48;;;;;;;1.90;1.30;;;;;;;16.98;85.45;99649.78;1720573;83;21048;-70
2022/05/26 08:55:19;;;;;;;1.85;1.17;;;;;;;17.15;84.84;99639.25;1720632;83;21553;-71
2022/05/26 08:58:16;;;;;;;1.92;1.27;;;;;;;17.44;81.29;99648.28;1720752;83;21183;-73
2022/05/26 09:00:46;;;;;;;2.52;1.17;;;;;;;17.87;79.07;99637.61;1720576;83;21108;-71
2022/05/26 09:03:36;;;;;;;2.35;1.10;;;;;;;18.41;77.40;99625.88;1694181;83;21068;-71
2022/05/26 09:06:07;;;;;;;1.45;1.12;;;;;;;19.00;74.58;99623.52;1720554;83;21323;-71
2022/05/26 09:14:32;;;;;;;5.37;1.07;;;;;;;20.38;67.48;99620.55;1723341;83;21021;-72
2022/05/26 09:17:03;;;;;;;3.85;0.80;;;;;;;20.67;66.21;99639.47;1725950;82;21072;-71
2022/05/26 09:19:48;;;;;;;1.55;1.10;;;;;;;20.92;62.50;99631.98;1725987;83;21085;-70
2022/05/26 09:22:46;;;;;;;2.52;0.90;;;;;;;21.06;63.29;99627.59;1726000;83;21052;-70
2022/05/26 09:25:37;;;;;;;6.05;1.05;;;;;;;21.12;60.29;99624.88;1726031;83;21138;-71
2022/05/26 09:28:05;;;;;;;1.98;1.20;;;;;;;21.11;61.72;99633.88;1726136;82;21080;-70
2022/05/26 09:30:33;;;;;;;2.45;1.07;;;;;;;21.06;60.90;99626.25;1709816;83;21021;-71
2022/05/26 09:33:01;;;;;;;1.85;1.00;;;;;;;21.00;62.91;99628.13;1725825;82;21080;-70
2022/05/26 09:35:31;;;;;;;2.60;1.15;;;;;;;21.22;61.32;99628.41;1726050;83;21014;-71
2022/05/26 09:38:02;;;;;;;1.12;0.93;;;;;;;21.45;59.62;99626.38;1726011;82;21202;-71
2022/05/26 09:40:32;;;;;;;1.80;1.20;;;;;;;21.69;59.07;99619.76;1726013;82;21579;-71
2022/05/26 09:43:03;;;;;;;3.65;1.10;;;;;;;21.83;59.89;99631.39;1726407;83;21588;-72
2022/05/26 09:45:41;;;;;;;;;;;;;;;21.83;58.02;99623.35;1728547;83;21096;-70
2022/05/26 09:48:27;;;;;;;4.67;1.15;;;;;;;22.00;56.56;99630.69;1726407;83;20207;-72
2022/05/26 09:51:24;;;;;;;3.05;1.07;;;;;;;22.15;56.29;99625.72;1725930;83;21150;-70
2022/05/26 09:53:54;;;;;;;4.55;1.10;;;;;;;22.04;55.31;99617.86;1726112;82;21049;-70
2022/05/26 09:56:42;;;;;;;3.67;0.93;;;;;;;21.93;55.08;99622.88;1726357;82;21125;-71
2022/05/26 09:59:34;;;;;;;2.72;1.27;;;;;;;21.94;55.35;99621.03;1726404;83;21038;-72
2022/05/26 10:02:16;;;;;;;3.08;1.00;;;;;;;22.17;54.64;99625.59;1726074;82;21090;-70
2022/05/26 10:04:48;;;;;;;1.65;0.95;;;;;;;22.29;54.50;99615.58;1726018;82;21151;-70
2022/05/26 10:07:27;;;;;;;5.53;1.07;;;;;;;22.32;52.77;99606.76;1725821;82;21029;-71
2022/05/26 10:10:12;;;;;;;4.55;1.20;;;;;;;22.34;53.22;99612.83;1726090;82;21107;-70
2022/05/26 10:13:03;;;;;;;5.35;1.10;;;;;;;22.47;53.40;99614.34;1726095;83;21057;-70
2022/05/26 10:15:37;;;;;;;;;;;;;;;22.62;53.05;99616.91;1699564;83;21148;-70
2022/05/26 10:18:39;;;;;;;2.87;0.90;;;;;;;22.94;53.04;99612.97;1696861;84;21120;-70
2022/05/26 10:21:33;;;;;;;2.65;1.00;;;;;;;23.46;52.09;99613.23;1696405;83;21065;-72
2022/05/26 10:24:26;;;;;;;1.75;1.00;;;;;;;24.06;47.81;99611.28;1696823;84;21014;-71
2022/05/26 10:27:46;;;;;;;2.10;0.95;;;;;;;24.34;43.84;99612.02;1680929;84;21053;-70
2022/05/26 10:30:27;;;;;;;2.77;1.12;;;;;;;24.59;42.48;99616.22;1697017;84;21044;-72
2022/05/26 10:33:37;;;;;;;5.65;1.22;;;;;;;24.80;41.86;99605.91;1696828;84;21793;-71
2022/05/26 10:36:18;;;;;;;2.80;1.10;;;;;;;24.98;41.34;99603.61;1696693;84;21057;-72
2022/05/26 10:39:06;;;;;;;;;;;;;;;24.94;39.35;99604.94;1665807;86;21031;-71
2022/05/26 10:41:58;;;;;;;3.55;1.25;;;;;;;24.57;38.60;99611.48;1646293;87;20186;-71
2022/05/26 10:44:48;;;;;;;3.67;2.47;;;;;;;24.30;39.98;99609.30;1646446;87;21081;-71
2022/05/26 10:47:25;;;;;;;3.33;1.02;;;;;;;24.44;39.89;99606.52;1645369;87;21065;-72
2022/05/26 10:50:00;;;;;;;8.55;1.32;;;;;;;24.40;37.73;99607.33;1661670;86;21090;-70
2022/05/26 10:52:38;;;;;;;2.47;1.10;;;;;;;24.29;38.26;99615.66;1663508;86;21159;-71
2022/05/26 10:55:13;;;;;;;2.05;1.00;;;;;;;24.18;37.38;99610.05;1657677;86;21085;-71
2022/05/26 10:57:56;;;;;;;1.77;1.20;;;;;;;23.94;37.88;99609.85;1658885;86;21149;-71
2022/05/26 11:00:25;;;;;;;4.35;1.30;;;;;;;23.93;39.06;99617.08;1652575;86;21518;-71
2022/05/26 11:03:07;;;;;;;3.37;1.10;;;;;;;23.99;37.69;99608.38;1663155;86;21061;-72
2022/05/26 11:05:48;;;;;;;1.80;1.30;;;;;;;24.02;37.99;99616.15;1663032;85;21600;-72
2022/05/26 11:08:51;;;;;;;6.78;1.12;;;;;;;24.28;37.98;99612.64;1663136;86;21091;-71
2022/05/26 11:11:28;;;;;;;4.42;1.10;;;;;;;24.56;36.48;99621.42;1663746;86;21081;-70
2022/05/26 11:14:08;;;;;;;3.75;1.20;;;;;;;24.79;36.11;99619.02;1672657;84;21395;-71
2022/05/26 11:19:39;;;;;;;2.22;1.05;;;;;;;24.62;36.20;99627.52;1691684;84;21104;-71
2022/05/26 11:22:06;;;;;;;2.17;1.02;;;;;;;24.60;35.25;99612.54;1684601;84;21085;-71
2022/05/26 11:24:33;;;;;;;5.72;0.80;;;;;;;24.61;36.02;99629.02;1667360;84;21132;-72
2022/05/26 11:27:11;;;;;;;3.20;1.40;;;;;;;24.67;34.99;99623.00;1691766;84;21146;-70
2022/05/26 11:29:49;;;;;;;5.53;1.52;;;;;;;24.63;33.14;99631.05;1691460;84;21141;-72
2022/05/26 11:38:35;;;;;;;3.27;1.17;;;;;;;24.13;34.60;99624.96;1672437;84;21113;-73
2022/05/26 11:41:07;;;;;;;1.32;1.10;;;;;;;24.02;35.44;99624.73;1718433;83;21084;-71
2022/05/26 11:43:44;;;;;;;4.53;1.02;;;;;;;23.97;35.71;99635.95;1717772;83;21038;-72
2022/05/26 11:46:12;;;;;;;2.47;1.10;;;;;;;24.04;35.91;99619.53;1718209;83;21059;-71
2022/05/26 11:48:43;;;;;;;3.37;1.30;;;;;;;24.17;36.38;99628.52;1718127;83;21036;-70
2022/05/26 11:51:26;;;;;;;3.57;1.10;;;;;;;24.25;34.21;99623.22;1718582;83;21067;-72
2022/05/26 11:53:53;;;;;;;1.95;1.32;;;;;;;24.02;34.22;99633.63;1718303;83;21195;-71
2022/05/26 11:56:29;;;;;;;4.53;1.22;;;;;;;23.75;34.48;99627.00;1718067;83;21068;-72
2022/05/26 11:59:32;;;;;;;1.15;0.70;;;;;;;23.67;35.56;99623.69;1718253;83;21512;-71
2022/05/26 12:02:14;;;;;;;3.15;1.17;;;;;;;23.77;36.91;99616.95;1718017;83;21052;-71
2022/05/26 12:04:45;;;;;;;3.33;1.47;;;;;;;23.92;35.31;99624.79;1717780;83;21017;-72
2022/05/26 12:07:22;;;;;;;3.80;1.20;;;;;;;23.98;34.59;99637.63;1717800;83;21592;-71
2022/05/26 12:09:57;;;;;;;3.92;1.22;;;;;;;23.98;34.36;99632.75;1717604;83;21072;-71
2022/05/26 12:12:30;;;;;;;3.67;1.02;;;;;;;23.84;34.67;99631.45;1717905;83;21064;-71
2022/05/26 12:15:09;;;;;;;3.00;1.27;;;;;;;23.80;34.39;99628.22;1713394;82;21069;-70
2022/05/26 12:17:50;;;;;;;3.87;1.20;;;;;;;23.71;34.95;99629.62;1711494;83;21588;-71
2022/05/26 12:20:23;;;;;;;11.25;1.40;;;;;;;23.64;34.67;99628.88;1712536;83;21401;-70
2022/05/26 12:22:57;;;;;;;6.30;1.50;;;;;;;23.51;35.27;99627.56;1712346;83;21091;-71
2022/05/26 12:25:37;;;;;;;4.30;1.40;;;;;;;23.42;35.08;99627.96;1712650;83;21080;-71
2022/05/26 12:28:28;;;;;;;2.55;0.85;;;;;;;23.30;35.20;99625.16;1712613;83;28125;-71
2022/05/26 12:31:01;;;;;;;2.35;1.00;;;;;;;23.30;35.69;99633.22;1712366;83;21053;-70
2022/05/26 12:33:50;;;;;;;3.05;1.17;;;;;;;23.19;35.47;99639.16;1712376;83;21196;-72
2022/05/26 12:36:42;;;;;;;4.67;1.20;;;;;;;23.16;37.02;99645.31;1676787;83;21005;-73
2022/05/26 12:39:31;;;;;;;7.53;1.20;;;;;;;23.14;36.11;99641.42;1712749;83;21179;-71
2022/05/26 12:42:19;;;;;;;3.10;1.02;;;;;;;23.08;35.18;99634.48;1708287;83;21113;-71
2022/05/26 12:45:18;;;;;;;4.62;1.40;;;;;;;23.10;35.36;99636.50;1712321;83;21046;-71